createdAt,value
2024-03-19T07:55:08.377Z,979.86
2024-03-19T07:56:07.493Z,979.84
2024-03-19T07:57:07.374Z,979.86
2024-03-19T07:58:08.683Z,979.89
2024-03-19T07:59:07.125Z,979.91
2024-03-19T08:00:07.044Z,979.92
2024-03-19T08:01:06.917Z,979.96
2024-03-19T08:02:06.825Z,979.97
2024-03-19T08:03:06.744Z,979.94
2024-03-19T08:04:06.672Z,979.91
2024-03-19T08:05:06.670Z,979.92
2024-03-19T08:06:06.501Z,979.91
2024-03-19T08:07:06.425Z,979.94
2024-03-19T08:08:06.333Z,979.96
2024-03-19T08:09:06.249Z,979.98
2024-03-19T08:10:06.185Z,979.98
2024-03-19T08:11:06.088Z,979.98
2024-03-19T08:12:06.018Z,979.95
2024-03-19T08:13:05.918Z,979.92
2024-03-19T08:14:05.834Z,979.95
2024-03-19T08:15:05.751Z,979.96
2024-03-19T08:16:05.666Z,979.95
2024-03-19T08:17:05.588Z,979.98
2024-03-19T08:18:05.511Z,980.00
2024-03-19T08:19:05.423Z,979.99
2024-03-19T08:20:05.336Z,979.99
2024-03-19T08:21:05.257Z,979.97
2024-03-19T08:22:05.165Z,979.97
2024-03-19T08:23:05.099Z,979.99
2024-03-19T08:24:05.006Z,979.99
2024-03-19T08:25:04.922Z,980.01
2024-03-19T08:26:04.984Z,979.99
2024-03-19T08:27:04.848Z,980.02
2024-03-19T08:28:04.683Z,980.01
2024-03-19T08:29:04.591Z,980.02
2024-03-19T08:30:05.590Z,980.00
2024-03-19T08:31:06.357Z,980.00
2024-03-19T08:32:04.355Z,980.03
2024-03-19T08:33:04.259Z,980.02
2024-03-19T08:34:04.187Z,980.04
2024-03-19T08:35:04.099Z,980.04
2024-03-19T08:36:04.011Z,980.03
2024-03-19T08:37:03.931Z,980.05
2024-03-19T08:38:03.852Z,980.05
2024-03-19T08:39:03.782Z,980.04
2024-03-19T08:40:03.687Z,980.03
2024-03-19T08:41:03.604Z,980.01
2024-03-19T08:42:05.912Z,980.05
2024-03-19T08:43:03.442Z,980.03
2024-03-19T08:44:03.362Z,980.03
2024-03-19T08:45:03.278Z,980.01
2024-03-19T08:46:03.208Z,980.02
2024-03-19T08:47:03.117Z,980.06
2024-03-19T08:48:03.043Z,980.01
2024-03-19T08:49:02.993Z,980.04
2024-03-19T08:50:02.874Z,980.04
2024-03-19T08:51:02.792Z,980.04
2024-03-19T08:52:02.712Z,980.08
2024-03-19T08:53:02.630Z,980.04
2024-03-19T08:54:02.547Z,980.05
2024-03-19T08:55:02.470Z,980.09
2024-03-19T08:56:02.406Z,980.07
2024-03-19T08:57:02.306Z,980.09
2024-03-19T08:58:02.219Z,980.05
2024-03-19T08:59:02.146Z,980.05
2024-03-19T09:00:02.092Z,980.08
2024-03-19T09:01:01.976Z,980.07
2024-03-19T09:02:01.912Z,980.10
2024-03-19T09:03:01.853Z,980.07
2024-03-19T09:04:01.740Z,980.11
2024-03-19T09:05:01.673Z,980.10
2024-03-19T09:06:01.623Z,980.10
2024-03-19T09:07:01.501Z,980.10
2024-03-19T09:08:01.532Z,980.06
2024-03-19T09:09:01.377Z,980.06
2024-03-19T09:10:01.273Z,980.07
2024-03-19T09:11:01.186Z,980.06
2024-03-19T09:12:01.100Z,980.07
2024-03-19T09:13:01.024Z,980.08
2024-03-19T09:14:00.947Z,980.10
2024-03-19T09:15:00.863Z,980.03
2024-03-19T09:16:00.780Z,980.11
2024-03-19T09:17:00.701Z,980.09
2024-03-19T09:18:00.630Z,980.10
2024-03-19T09:19:00.571Z,980.10
2024-03-19T09:20:00.479Z,980.12
2024-03-19T09:21:00.385Z,980.14
2024-03-19T09:22:00.309Z,980.13
2024-03-19T09:23:00.229Z,980.14
2024-03-19T09:24:01.947Z,980.15
2024-03-19T09:25:03.271Z,980.16
2024-03-19T09:26:00.888Z,980.19
2024-03-19T09:27:00.226Z,980.15
2024-03-19T09:28:00.335Z,980.17
2024-03-19T09:28:59.906Z,980.13
2024-03-19T09:30:00.464Z,980.18
2024-03-19T09:31:00.150Z,980.14
2024-03-19T09:31:59.881Z,980.14
2024-03-19T09:33:00.268Z,980.14
2024-03-19T09:33:59.989Z,980.12
2024-03-19T09:35:00.017Z,980.13
2024-03-19T09:35:59.358Z,980.13
2024-03-19T09:36:59.660Z,980.13
2024-03-19T09:37:59.519Z,980.17
2024-03-19T09:38:59.110Z,980.17
2024-03-19T09:39:59.983Z,980.18
2024-03-19T09:40:59.072Z,980.16
2024-03-19T09:41:59.224Z,980.13
2024-03-19T09:42:58.713Z,980.14
2024-03-19T09:43:59.960Z,980.17
2024-03-19T09:44:58.638Z,980.16
2024-03-19T09:45:58.524Z,980.19
2024-03-19T09:46:59.079Z,980.17
2024-03-19T09:47:59.680Z,980.17
